weather.gov     
National Weather Service

Terminal Aerodrome Forecast
NWS Homepage
This page is being discontinued on March 12, 2014.
The same data is available at this site. Please update your bookmarks.
Thank you, and we apologize for the inconvenience.
Please send an email to SR-SRH.Webmaster@noaa.gov with any concerns.


Current Version
Previous Version:    01  02  03  04  05  06  07  08  09  10  11  12  13  14  15  16  17  18  19  20  21  22  23  24  25  
[Printable]
774
FTUS44 KOUN 161734
TAFCSM
TAF
KCSM 161734Z 1618/1718 18023G33KT P6SM SCT250
     FM162300 17018G24KT P6SM SCT250
     FM170300 12013KT P6SM BKN250
     FM171200 08012KT 5SM -RA SCT015 BKN025=


774
FTUS44 KOUN 161734
TAFCSM
TAF
KCSM 161734Z 1618/1718 18023G33KT P6SM SCT250
     FM162300 17018G24KT P6SM SCT250
     FM170300 12013KT P6SM BKN250
     FM171200 08012KT 5SM -RA SCT015 BKN025=




U.S. Dept. of Commerce
NOAA National Weather Service
1325 East West Highway
Silver Spring, MD 20910
E-mail: w-nws.webmaster@noaa.gov
Page last modified: May 16, 2007
NATIONAL WEATHER SERVICE: for Safety, for Work, for Fun - FOR LIFE